createdAt,value
2023-05-03T00:00:21.285Z,7.5
2023-05-03T00:01:23.246Z,7.5
2023-05-03T00:02:25.362Z,7.5
2023-05-03T00:03:27.244Z,7.5
2023-05-03T00:04:29.268Z,7.4
2023-05-03T00:05:31.257Z,7.4
2023-05-03T00:06:33.309Z,7.5
2023-05-03T00:07:36.266Z,7.4
2023-05-03T00:08:39.257Z,7.4
2023-05-03T00:09:41.272Z,7.3
2023-05-03T00:10:43.248Z,7.3
2023-05-03T00:11:45.245Z,7.3
2023-05-03T00:12:47.258Z,7.3
2023-05-03T00:13:49.248Z,7.3
2023-05-03T00:14:51.245Z,7.3
2023-05-03T00:15:53.261Z,7.3
2023-05-03T00:16:55.272Z,7.3
2023-05-03T00:17:57.402Z,7.3
2023-05-03T00:18:59.256Z,7.3
2023-05-03T00:20:01.486Z,7.3
2023-05-03T00:21:03.258Z,7.3
2023-05-03T00:22:05.272Z,7.3
2023-05-03T00:23:07.261Z,7.3
2023-05-03T00:24:09.261Z,7.3
2023-05-03T00:25:11.280Z,7.3
2023-05-03T00:26:13.254Z,7.3
2023-05-03T00:27:15.257Z,7.3
2023-05-03T00:28:17.271Z,7.3
2023-05-03T00:29:19.261Z,7.3
2023-05-03T00:30:21.329Z,7.3
2023-05-03T00:31:23.326Z,7.3
2023-05-03T00:32:25.303Z,7.3
2023-05-03T00:33:27.276Z,7.3
2023-05-03T00:34:29.275Z,7.3
2023-05-03T00:35:31.273Z,7.2
2023-05-03T00:36:34.749Z,7.2
2023-05-03T00:37:36.296Z,7.2
2023-05-03T00:39:41.269Z,7.2
2023-05-03T00:40:43.270Z,7.2
2023-05-03T00:41:45.268Z,7.1
2023-05-03T00:42:47.280Z,7.1
2023-05-03T00:43:49.273Z,7.1
2023-05-03T00:44:51.975Z,7.1
2023-05-03T00:45:55.315Z,7
2023-05-03T00:46:55.316Z,7
2023-05-03T00:47:57.316Z,7
2023-05-03T00:48:59.288Z,6.9
2023-05-03T00:50:01.705Z,6.9
2023-05-03T00:51:03.282Z,6.9
2023-05-03T00:52:05.283Z,6.9
2023-05-03T00:53:07.292Z,6.9
2023-05-03T00:54:09.293Z,6.8
2023-05-03T00:55:11.281Z,6.8
2023-05-03T00:56:13.288Z,6.8
2023-05-03T00:57:15.289Z,6.8
2023-05-03T00:58:17.293Z,6.7
2023-05-03T00:59:19.301Z,6.8
2023-05-03T01:00:21.297Z,6.8
2023-05-03T01:01:23.338Z,6.8
2023-05-03T01:02:25.398Z,6.8
2023-05-03T01:03:27.341Z,6.8
2023-05-03T01:04:29.295Z,6.8
2023-05-03T01:05:31.290Z,6.8
2023-05-03T01:06:33.380Z,6.8
2023-05-03T01:07:36.315Z,6.7
2023-05-03T01:08:39.292Z,6.7
2023-05-03T01:09:41.291Z,6.7
2023-05-03T01:10:43.293Z,6.7
2023-05-03T01:11:45.293Z,6.7
2023-05-03T01:12:47.291Z,6.7
2023-05-03T01:13:49.303Z,6.7
2023-05-03T01:14:51.308Z,6.7
2023-05-03T01:15:53.344Z,6.7
2023-05-03T01:16:55.314Z,6.7
2023-05-03T01:17:57.372Z,6.6
2023-05-03T01:18:59.297Z,6.6
2023-05-03T01:20:01.595Z,6.6
2023-05-03T01:21:03.306Z,6.6
2023-05-03T01:22:05.299Z,6.7
2023-05-03T01:23:07.307Z,6.6
2023-05-03T01:24:09.315Z,6.7
2023-05-03T01:25:12.293Z,6.6
2023-05-03T01:26:14.305Z,6.6
2023-05-03T01:27:16.297Z,6.5
2023-05-03T01:28:31.258Z,6.5
2023-05-03T01:29:20.320Z,6.5
2023-05-03T01:30:23.324Z,6.5
2023-05-03T01:31:25.380Z,6.5
2023-05-03T01:32:28.366Z,6.5
2023-05-03T01:33:30.314Z,6.4
2023-05-03T01:34:32.305Z,6.4
2023-05-03T01:35:34.345Z,6.4
2023-05-03T01:36:36.313Z,6.4
2023-05-03T01:37:39.329Z,6.4
2023-05-03T01:38:41.336Z,6.4
2023-05-03T01:39:43.372Z,6.4
2023-05-03T01:40:46.330Z,6.4
2023-05-03T01:41:48.305Z,6.4
2023-05-03T01:42:50.317Z,6.3
2023-05-03T01:43:52.316Z,6.3
2023-05-03T01:44:54.380Z,6.3
2023-05-03T01:45:56.352Z,6.2
2023-05-03T01:46:58.321Z,6.2
2023-05-03T01:48:00.352Z,6.2
2023-05-03T01:49:02.324Z,6.2
2023-05-03T01:50:04.652Z,6.2
2023-05-03T01:51:06.316Z,6.2
2023-05-03T01:52:08.359Z,6.2
2023-05-03T01:53:10.322Z,6.2
2023-05-03T01:54:12.327Z,6.2
2023-05-03T01:55:14.326Z,6.2
2023-05-03T01:56:16.356Z,6.1
2023-05-03T01:57:18.346Z,6.1
2023-05-03T01:58:20.330Z,6.1
2023-05-03T01:59:22.329Z,6
2023-05-03T02:00:24.328Z,6
2023-05-03T02:01:26.353Z,6
2023-05-03T02:02:28.404Z,5.9
2023-05-03T02:03:30.353Z,5.9
2023-05-03T02:04:32.346Z,5.9
2023-05-03T02:05:34.343Z,5.8
2023-05-03T02:06:36.405Z,5.8
2023-05-03T02:07:40.347Z,5.8
2023-05-03T02:08:42.351Z,5.7
2023-05-03T02:09:45.335Z,5.7
2023-05-03T02:10:47.332Z,5.7
2023-05-03T02:11:49.354Z,5.7
2023-05-03T02:12:51.357Z,5.7
2023-05-03T02:13:53.343Z,5.6
2023-05-03T02:14:55.357Z,5.6
2023-05-03T02:15:57.353Z,5.5
2023-05-03T02:16:59.407Z,5.5
2023-05-03T02:18:01.424Z,5.5
2023-05-03T02:19:03.338Z,5.4
2023-05-03T02:20:05.717Z,5.4
2023-05-03T02:21:07.402Z,5.4
2023-05-03T02:22:09.461Z,5.4
2023-05-03T02:23:11.353Z,5.4
2023-05-03T02:24:13.354Z,5.4
2023-05-03T02:25:15.365Z,5.3
2023-05-03T02:26:17.356Z,5.3
2023-05-03T02:27:19.348Z,5.2
2023-05-03T02:28:21.436Z,5.2
2023-05-03T02:29:23.364Z,5.1
2023-05-03T02:30:25.358Z,5.1
2023-05-03T02:31:27.433Z,5.1
2023-05-03T02:32:29.391Z,5.1
2023-05-03T02:33:31.357Z,5.1
2023-05-03T02:34:33.365Z,5.1
2023-05-03T02:35:36.383Z,5.1
2023-05-03T02:36:39.371Z,5.1
2023-05-03T02:37:41.351Z,5.1
2023-05-03T02:38:43.355Z,5.1
2023-05-03T02:39:45.386Z,5.1
2023-05-03T02:40:47.420Z,5
2023-05-03T02:42:51.369Z,4.9
2023-05-03T02:43:53.361Z,4.9
2023-05-03T02:44:55.359Z,4.9
2023-05-03T02:45:57.463Z,4.8
2023-05-03T02:47:00.381Z,4.8
2023-05-03T02:48:02.443Z,4.8
2023-05-03T02:49:04.373Z,4.7
2023-05-03T02:50:06.606Z,4.7
2023-05-03T02:51:08.385Z,4.7
2023-05-03T02:52:10.397Z,4.7
2023-05-03T02:53:12.375Z,4.7
2023-05-03T02:54:14.359Z,4.7
2023-05-03T02:55:16.383Z,4.6
2023-05-03T02:56:18.408Z,4.6
2023-05-03T02:57:20.364Z,4.6
2023-05-03T02:58:22.382Z,4.6
2023-05-03T02:59:24.366Z,4.5
2023-05-03T03:00:26.371Z,4.5
2023-05-03T03:01:28.407Z,4.5
2023-05-03T03:02:30.449Z,4.5
2023-05-03T03:04:34.381Z,4.5
2023-05-03T03:05:36.385Z,4.5
2023-05-03T03:06:40.424Z,4.4
2023-05-03T03:08:45.372Z,4.4
2023-05-03T03:09:47.405Z,4.4
2023-05-03T03:10:49.389Z,4.3
2023-05-03T03:11:51.395Z,4.3
2023-05-03T03:12:53.380Z,4.3
2023-05-03T03:13:55.392Z,4.2
2023-05-03T03:14:57.388Z,4.2
2023-05-03T03:15:59.421Z,4.2
2023-05-03T03:17:01.398Z,4.1
2023-05-03T03:18:03.444Z,4.1
2023-05-03T03:19:05.379Z,4.1
2023-05-03T03:20:07.421Z,4.1
2023-05-03T03:21:09.453Z,4.1
2023-05-03T03:22:11.411Z,4
2023-05-03T03:23:13.374Z,4
2023-05-03T03:24:15.381Z,4
2023-05-03T03:25:17.382Z,4
2023-05-03T03:26:19.403Z,4
2023-05-03T03:27:21.438Z,4
2023-05-03T03:28:23.390Z,4
2023-05-03T03:29:25.393Z,4
2023-05-03T03:30:27.392Z,3.9
2023-05-03T03:31:29.469Z,3.8
2023-05-03T03:32:31.421Z,3.8
2023-05-03T03:33:33.398Z,3.7
2023-05-03T03:34:36.432Z,3.7
2023-05-03T03:35:39.474Z,3.7
2023-05-03T03:36:41.387Z,3.8
2023-05-03T03:37:43.434Z,3.8
2023-05-03T03:38:46.403Z,3.7
2023-05-03T03:39:48.393Z,3.6
2023-05-03T03:40:50.397Z,3.6
2023-05-03T03:41:52.400Z,3.5
2023-05-03T03:42:54.407Z,3.5
2023-05-03T03:44:28.525Z,3.4
2023-05-03T03:45:28.521Z,3.4
2023-05-03T03:46:28.571Z,3.4
2023-05-03T03:47:28.546Z,3.4
2023-05-03T03:48:28.561Z,3.4
2023-05-03T03:49:28.531Z,3.4
2023-05-03T03:50:28.530Z,3.4
2023-05-03T03:51:28.541Z,3.4
2023-05-03T03:52:28.527Z,3.4
2023-05-03T03:53:28.537Z,3.3
2023-05-03T03:54:28.520Z,3.3
2023-05-03T03:55:28.517Z,3.3
2023-05-03T03:56:28.533Z,3.3
2023-05-03T03:57:28.528Z,3.3
2023-05-03T03:58:28.570Z,3.3
2023-05-03T03:59:28.526Z,3.3
2023-05-03T04:00:29.431Z,3.3
2023-05-03T04:01:31.437Z,3.2
2023-05-03T04:02:33.584Z,3.2
2023-05-03T04:03:36.794Z,3.2
2023-05-03T04:04:39.465Z,3.2
2023-05-03T04:05:41.413Z,3.2
2023-05-03T04:06:43.473Z,3.2
2023-05-03T04:07:45.438Z,3.2
2023-05-03T04:08:47.501Z,3.1
2023-05-03T04:09:49.444Z,3.1
2023-05-03T04:10:51.416Z,3.1
2023-05-03T04:11:53.640Z,3.2
2023-05-03T04:12:55.428Z,3.2
2023-05-03T04:14:59.423Z,3.1
2023-05-03T04:16:02.689Z,3.1
2023-05-03T04:17:03.476Z,3.1
2023-05-03T04:18:05.479Z,3.1
2023-05-03T04:19:07.477Z,3.1
2023-05-03T04:20:09.439Z,3.1
2023-05-03T04:21:11.424Z,3
2023-05-03T04:22:13.423Z,3
2023-05-03T04:23:15.458Z,3.1
2023-05-03T04:24:17.490Z,3.1
2023-05-03T04:25:19.442Z,3
2023-05-03T04:27:23.431Z,3
2023-05-03T04:28:28.558Z,2.9
2023-05-03T04:31:31.658Z,2.9
2023-05-03T04:32:33.460Z,2.9
2023-05-03T04:33:36.548Z,2.9
2023-05-03T04:34:39.464Z,3
2023-05-03T04:35:41.444Z,3
2023-05-03T04:36:43.462Z,3.1
2023-05-03T04:37:45.430Z,3
2023-05-03T04:38:47.452Z,3.1
2023-05-03T04:39:49.450Z,3.1
2023-05-03T04:40:51.445Z,3.1
2023-05-03T04:41:53.498Z,3.1
2023-05-03T04:42:55.462Z,3.2
2023-05-03T04:43:57.450Z,3.2
2023-05-03T04:44:59.435Z,3.2
2023-05-03T04:46:01.453Z,3.2
2023-05-03T04:47:03.459Z,3.2
2023-05-03T04:48:05.665Z,3.2
2023-05-03T04:49:07.465Z,3.2
2023-05-03T04:50:09.435Z,3.2
2023-05-03T04:51:11.452Z,3.2
2023-05-03T04:52:13.565Z,3.2
2023-05-03T04:53:15.452Z,3.2
2023-05-03T04:54:18.448Z,3.3
2023-05-03T04:55:20.484Z,3.3
2023-05-03T04:56:22.457Z,3.4
2023-05-03T04:57:24.468Z,3.4
2023-05-03T04:58:26.453Z,3.4
2023-05-03T04:59:28.470Z,3.4
2023-05-03T05:00:30.455Z,3.4
2023-05-03T05:01:32.538Z,3.5
2023-05-03T05:02:34.525Z,3.5
2023-05-03T05:03:38.664Z,3.5
2023-05-03T05:04:40.463Z,3.5
2023-05-03T05:05:42.455Z,3.5
2023-05-03T05:06:44.464Z,3.5
2023-05-03T05:07:46.468Z,3.6
2023-05-03T05:08:48.463Z,3.6
2023-05-03T05:09:50.447Z,3.6
2023-05-03T05:10:52.474Z,3.7
2023-05-03T05:11:56.818Z,3.7
2023-05-03T05:12:56.484Z,3.8
2023-05-03T05:13:58.502Z,3.8
2023-05-03T05:15:00.473Z,3.9
2023-05-03T05:16:02.463Z,3.9
2023-05-03T05:17:04.479Z,3.9
2023-05-03T05:18:06.498Z,4
2023-05-03T05:19:08.457Z,4
2023-05-03T05:20:10.477Z,4.1
2023-05-03T05:21:12.471Z,4.1
2023-05-03T05:22:28.578Z,4.1
2023-05-03T05:23:28.591Z,4.2
2023-05-03T05:24:28.583Z,4.2
2023-05-03T05:25:28.595Z,4.3
2023-05-03T05:26:28.608Z,4.3
2023-05-03T05:27:28.624Z,4.4
2023-05-03T05:28:28.726Z,4.4
2023-05-03T05:29:30.465Z,4.5
2023-05-03T05:30:32.485Z,4.5
2023-05-03T05:31:34.526Z,4.6
2023-05-03T05:32:36.536Z,4.6
2023-05-03T05:33:38.647Z,4.7
2023-05-03T05:34:45.611Z,4.7
2023-05-03T05:35:42.469Z,4.8
2023-05-03T05:36:44.465Z,4.8
2023-05-03T05:37:46.487Z,4.8
2023-05-03T05:38:48.495Z,4.9
2023-05-03T05:39:50.496Z,4.9
2023-05-03T05:41:28.608Z,5
2023-05-03T05:42:28.660Z,5
2023-05-03T05:43:28.601Z,5.1
2023-05-03T05:44:28.651Z,5.1
2023-05-03T05:45:28.597Z,5.1
2023-05-03T05:46:28.623Z,5.2
2023-05-03T05:47:28.769Z,5.2
2023-05-03T05:48:28.598Z,5.2
2023-05-03T05:49:28.675Z,5.3
2023-05-03T05:50:28.612Z,5.3
2023-05-03T05:51:28.600Z,5.3
2023-05-03T05:52:28.598Z,5.4
2023-05-03T05:53:28.635Z,5.4
2023-05-03T05:54:29.346Z,5.4
2023-05-03T05:55:28.662Z,5.5
2023-05-03T05:56:28.604Z,5.5
2023-05-03T05:57:28.643Z,5.5
2023-05-03T05:58:28.608Z,5.6
2023-05-03T05:59:29.521Z,5.6
2023-05-03T06:00:31.616Z,5.6
2023-05-03T06:01:33.525Z,5.7
2023-05-03T06:02:36.759Z,5.7
2023-05-03T06:03:40.739Z,5.8
2023-05-03T06:04:42.515Z,5.8
2023-05-03T06:05:44.609Z,5.8
2023-05-03T06:06:46.591Z,5.9
2023-05-03T06:07:48.560Z,5.9
2023-05-03T06:08:50.503Z,5.9
2023-05-03T06:09:52.520Z,5.9
2023-05-03T06:10:54.495Z,6
2023-05-03T06:11:56.510Z,6
2023-05-03T06:12:58.561Z,6.1
2023-05-03T06:14:00.517Z,6.1
2023-05-03T06:15:03.264Z,6.2
2023-05-03T06:16:04.565Z,6.2
2023-05-03T06:17:06.577Z,6.2
2023-05-03T06:18:08.597Z,6.3
2023-05-03T06:19:10.498Z,6.3
2023-05-03T06:20:12.508Z,6.3
2023-05-03T06:21:14.570Z,6.4
2023-05-03T06:22:16.520Z,6.4
2023-05-03T06:23:18.510Z,6.4
2023-05-03T06:24:20.516Z,6.5
2023-05-03T06:25:22.535Z,6.5
2023-05-03T06:26:24.546Z,6.6
2023-05-03T06:27:26.588Z,6.7
2023-05-03T06:28:28.536Z,6.7
2023-05-03T06:29:30.527Z,6.8
2023-05-03T06:30:32.580Z,6.9
2023-05-03T06:31:34.588Z,6.9
2023-05-03T06:32:36.556Z,7
2023-05-03T06:33:38.591Z,7
2023-05-03T06:34:40.517Z,7.1
2023-05-03T06:35:42.588Z,7.2
2023-05-03T06:36:44.523Z,7.2
2023-05-03T06:37:46.521Z,7.3
2023-05-03T06:38:49.597Z,7.3
2023-05-03T06:40:54.636Z,7.4
2023-05-03T06:41:56.537Z,7.5
2023-05-03T06:42:58.523Z,7.5
2023-05-03T06:44:00.570Z,7.6
2023-05-03T06:45:02.531Z,7.7
2023-05-03T06:46:04.722Z,7.7
2023-05-03T06:47:06.582Z,7.7
2023-05-03T06:48:08.636Z,7.8
2023-05-03T06:49:10.649Z,7.9
2023-05-03T06:50:12.524Z,7.9
2023-05-03T06:51:14.587Z,8
2023-05-03T06:52:16.530Z,8.1
2023-05-03T06:53:18.530Z,8.1
2023-05-03T06:54:21.534Z,8.1
2023-05-03T06:55:23.591Z,8.1
2023-05-03T06:56:26.147Z,8.1
2023-05-03T06:57:28.802Z,8.2
2023-05-03T06:58:29.544Z,8.3
2023-05-03T06:59:31.536Z,8.3
2023-05-03T07:00:33.550Z,8.3
2023-05-03T07:01:36.617Z,8.4
2023-05-03T07:02:40.648Z,8.4
2023-05-03T07:03:42.725Z,8.5
2023-05-03T07:04:44.532Z,8.6
2023-05-03T07:05:46.608Z,8.7
2023-05-03T07:06:56.466Z,8.7
2023-05-03T07:07:50.556Z,8.7
2023-05-03T07:08:52.553Z,8.8
2023-05-03T07:09:55.537Z,8.9
2023-05-03T07:10:57.599Z,9
2023-05-03T07:11:59.639Z,9
2023-05-03T07:13:01.549Z,9.1
2023-05-03T07:14:03.554Z,9.2
2023-05-03T07:15:05.612Z,9.2
2023-05-03T07:16:07.660Z,9.3
2023-05-03T07:17:09.543Z,9.4
2023-05-03T07:18:11.653Z,9.5
2023-05-03T07:19:13.605Z,9.6
2023-05-03T07:20:15.554Z,9.7
2023-05-03T07:21:19.614Z,9.7
2023-05-03T07:22:22.554Z,9.8
2023-05-03T07:23:24.559Z,9.9
2023-05-03T07:24:26.554Z,9.9
2023-05-03T07:26:30.609Z,10.1
2023-05-03T07:27:32.625Z,10.1
2023-05-03T07:28:34.547Z,10.1
2023-05-03T07:29:43.557Z,10.1
2023-05-03T07:30:39.619Z,10.1
2023-05-03T07:31:41.559Z,10.1
2023-05-03T07:32:43.719Z,10.1
2023-05-03T07:33:45.800Z,10.1
2023-05-03T07:34:47.571Z,10.1
2023-05-03T07:35:49.578Z,10.1
2023-05-03T07:36:51.561Z,10.1
2023-05-03T07:37:53.606Z,10.2
2023-05-03T07:38:58.165Z,10.3
2023-05-03T07:39:57.565Z,10.3
2023-05-03T07:40:59.561Z,10.4
2023-05-03T07:42:01.619Z,10.4
2023-05-03T07:43:03.584Z,10.5
2023-05-03T07:44:05.567Z,10.5
2023-05-03T07:45:07.583Z,10.6
2023-05-03T07:46:09.653Z,10.7
2023-05-03T07:47:11.627Z,10.8
2023-05-03T07:48:13.622Z,10.9
2023-05-03T07:49:15.564Z,11
2023-05-03T07:50:17.576Z,11.1
2023-05-03T07:51:19.564Z,11.2
2023-05-03T07:52:21.682Z,11.3
2023-05-03T07:53:23.620Z,11.4
2023-05-03T07:54:26.581Z,11.4
2023-05-03T07:55:28.650Z,11.5
2023-05-03T07:56:30.590Z,11.5
2023-05-03T07:57:32.568Z,11.5
2023-05-03T07:58:39.885Z,11.6
2023-05-03T07:59:36.589Z,11.7
2023-05-03T08:00:39.649Z,11.8
2023-05-03T08:01:43.578Z,11.8
2023-05-03T08:02:47.687Z,11.8
2023-05-03T08:03:51.905Z,11.9
2023-05-03T08:04:53.693Z,11.9
2023-05-03T08:06:58.671Z,11.9
2023-05-03T08:08:00.577Z,11.9
2023-05-03T08:09:02.625Z,12
2023-05-03T08:10:04.832Z,12
2023-05-03T08:11:06.642Z,11.9
2023-05-03T08:12:08.589Z,11.9
2023-05-03T08:13:10.644Z,12
2023-05-03T08:14:12.579Z,12.1
2023-05-03T08:15:14.656Z,12.2
2023-05-03T08:16:16.772Z,12.2
2023-05-03T08:17:18.582Z,12.3
2023-05-03T08:18:23.011Z,12.3
2023-05-03T08:19:22.660Z,12.4
2023-05-03T08:20:24.592Z,12.5
2023-05-03T08:21:26.664Z,12.5
2023-05-03T08:22:28.672Z,12.6
2023-05-03T08:23:30.600Z,12.8
2023-05-03T08:24:42.265Z,12.8
2023-05-03T08:25:34.722Z,12.7
2023-05-03T08:26:36.702Z,12.7
2023-05-03T08:27:40.610Z,12.7
2023-05-03T08:28:42.655Z,12.7
2023-05-03T08:29:44.600Z,12.7
2023-05-03T08:30:46.722Z,12.7
2023-05-03T08:31:48.721Z,12.8
2023-05-03T08:32:50.630Z,12.8
2023-05-03T08:33:52.579Z,12.8
2023-05-03T08:34:54.610Z,12.8
2023-05-03T08:35:56.598Z,12.8
2023-05-03T08:36:58.684Z,12.8
2023-05-03T08:38:00.657Z,12.9
2023-05-03T08:39:02.608Z,12.9
2023-05-03T08:40:04.902Z,12.9
2023-05-03T08:41:06.612Z,12.9
2023-05-03T08:42:08.660Z,13
2023-05-03T08:43:10.670Z,13.1
2023-05-03T08:44:12.610Z,13.2
2023-05-03T08:45:14.617Z,13.3
2023-05-03T08:46:16.645Z,13.4
2023-05-03T08:47:18.687Z,13.4
2023-05-03T08:48:20.680Z,13.4
2023-05-03T08:49:22.620Z,13.4
2023-05-03T08:50:24.615Z,13.5
2023-05-03T08:51:26.658Z,13.5
2023-05-03T08:52:29.625Z,13.6
2023-05-03T08:53:31.664Z,13.6
2023-05-03T08:54:33.621Z,13.7
2023-05-03T08:55:37.660Z,13.7
2023-05-03T08:56:39.621Z,13.7
2023-05-03T08:57:41.616Z,13.7
2023-05-03T08:58:43.629Z,13.7
2023-05-03T08:59:45.701Z,13.7
2023-05-03T09:00:47.680Z,13.6
2023-05-03T09:01:49.647Z,13.6
2023-05-03T09:02:53.737Z,13.6
2023-05-03T09:03:57.740Z,13.7
2023-05-03T09:04:59.681Z,13.7
2023-05-03T09:06:01.674Z,13.8
2023-05-03T09:07:04.640Z,13.9
2023-05-03T09:08:06.631Z,13.9
2023-05-03T09:09:08.942Z,14
2023-05-03T09:10:10.745Z,14
2023-05-03T09:11:12.646Z,13.9
2023-05-03T09:12:14.643Z,13.9
2023-05-03T09:13:16.633Z,14
2023-05-03T09:14:18.811Z,14.1
2023-05-03T09:15:20.624Z,14.1
2023-05-03T09:16:22.688Z,14.2
2023-05-03T09:17:24.643Z,14.1
2023-05-03T09:18:26.650Z,14.1
2023-05-03T09:19:28.710Z,14.2
2023-05-03T09:20:30.636Z,14.2
2023-05-03T09:21:32.656Z,14.2
2023-05-03T09:22:34.631Z,14.2
2023-05-03T09:23:36.674Z,14.3
2023-05-03T09:24:39.654Z,14.2
2023-05-03T09:25:43.650Z,14.2
2023-05-03T09:26:48.560Z,14.2
2023-05-03T09:27:50.657Z,14.2
2023-05-03T09:28:52.669Z,14.2
2023-05-03T09:29:54.656Z,14.3
2023-05-03T09:30:56.662Z,14.4
2023-05-03T09:31:58.732Z,14.5
2023-05-03T09:33:00.738Z,14.6
2023-05-03T09:34:02.717Z,14.7
2023-05-03T09:35:04.886Z,14.8
2023-05-03T09:36:06.656Z,14.8
2023-05-03T09:37:08.648Z,14.9
2023-05-03T09:38:10.749Z,14.9
2023-05-03T09:39:12.712Z,15
2023-05-03T09:40:14.741Z,15
2023-05-03T09:41:16.656Z,15
2023-05-03T09:42:18.660Z,15
2023-05-03T09:43:20.653Z,15.1
2023-05-03T09:44:22.771Z,15.1
2023-05-03T09:45:24.660Z,15.1
2023-05-03T09:46:26.700Z,15.1
2023-05-03T09:47:31.964Z,15.1
2023-05-03T09:48:30.663Z,15.1
2023-05-03T09:49:32.677Z,15.2
2023-05-03T09:50:34.678Z,15.3
2023-05-03T09:51:36.737Z,15.3
2023-05-03T09:52:39.724Z,15.3
2023-05-03T09:53:41.696Z,15.3
2023-05-03T09:54:43.674Z,15.4
2023-05-03T09:55:45.673Z,15.5
2023-05-03T09:56:47.684Z,15.6
2023-05-03T09:57:49.673Z,15.6
2023-05-03T09:58:51.701Z,15.6
2023-05-03T09:59:53.673Z,15.7
2023-05-03T10:00:55.768Z,15.7
2023-05-03T10:01:57.688Z,15.7
2023-05-03T10:02:59.714Z,15.7
2023-05-03T10:04:01.744Z,15.7
2023-05-03T10:05:03.981Z,15.8
2023-05-03T10:06:05.692Z,15.8
2023-05-03T10:07:07.744Z,15.8
2023-05-03T10:08:11.675Z,15.9
2023-05-03T10:09:15.681Z,15.8
2023-05-03T10:10:18.732Z,15.8
2023-05-03T10:11:20.689Z,15.7
2023-05-03T10:12:22.689Z,15.8
2023-05-03T10:13:24.700Z,15.9
2023-05-03T10:14:26.696Z,16
2023-05-03T10:15:28.713Z,16.1
2023-05-03T10:16:30.688Z,16.1
2023-05-03T10:17:46.959Z,16.1
2023-05-03T10:18:34.731Z,16.2
2023-05-03T10:19:36.753Z,16.2
2023-05-03T10:20:39.700Z,16.2
2023-05-03T10:21:41.698Z,16.2
2023-05-03T10:22:43.754Z,16.2
2023-05-03T10:23:45.700Z,16.3
2023-05-03T10:24:47.681Z,16.3
2023-05-03T10:25:49.752Z,16.3
2023-05-03T10:26:51.695Z,16.4
2023-05-03T10:27:53.708Z,16.4
2023-05-03T10:28:55.702Z,16.4
2023-05-03T10:29:57.690Z,16.4
2023-05-03T10:30:59.825Z,16.3
2023-05-03T10:32:01.813Z,16.3
2023-05-03T10:33:03.746Z,16.3
2023-05-03T10:34:05.698Z,16.3
2023-05-03T10:35:07.973Z,16.3
2023-05-03T10:36:09.879Z,16.5
2023-05-03T10:37:11.701Z,16.4
2023-05-03T10:38:13.763Z,16.4
2023-05-03T10:39:15.692Z,16.5
2023-05-03T10:40:19.698Z,16.5
2023-05-03T10:41:21.761Z,16.5
2023-05-03T10:42:23.723Z,16.5
2023-05-03T10:43:25.707Z,16.5
2023-05-03T10:44:27.725Z,16.6
2023-05-03T10:45:29.783Z,16.6
2023-05-03T10:46:31.790Z,16.7
2023-05-03T10:47:33.761Z,16.8
2023-05-03T10:48:37.712Z,16.8
2023-05-03T10:49:39.726Z,16.8
2023-05-03T10:50:43.716Z,16.8
2023-05-03T10:51:47.835Z,16.8
2023-05-03T10:52:49.706Z,16.9
2023-05-03T10:53:51.711Z,16.9
2023-05-03T10:54:53.704Z,16.9
2023-05-03T10:55:55.730Z,16.9
2023-05-03T10:56:57.800Z,16.9
2023-05-03T10:57:59.710Z,16.8
2023-05-03T10:59:01.716Z,16.8
2023-05-03T11:00:03.761Z,16.6
2023-05-03T11:01:05.865Z,16.5
2023-05-03T11:02:07.851Z,16.4
2023-05-03T11:03:09.724Z,16.4
2023-05-03T11:04:11.736Z,16.4
2023-05-03T11:05:13.776Z,16.4
2023-05-03T11:06:15.756Z,16.4
2023-05-03T11:07:17.717Z,16.5
2023-05-03T11:08:20.726Z,16.5
2023-05-03T11:09:22.717Z,16.6
2023-05-03T11:10:24.735Z,16.6
2023-05-03T11:11:26.790Z,16.7
2023-05-03T11:12:28.850Z,16.8
2023-05-03T11:13:30.751Z,16.7
2023-05-03T11:14:32.730Z,16.7
2023-05-03T11:15:34.810Z,16.8
2023-05-03T11:16:36.869Z,16.8
2023-05-03T11:17:40.747Z,16.9
2023-05-03T11:18:42.729Z,17
2023-05-03T11:19:44.725Z,17
2023-05-03T11:20:46.981Z,17.1
2023-05-03T11:21:48.744Z,17.2
2023-05-03T11:22:52.785Z,17.2
2023-05-03T11:23:55.817Z,17.2
2023-05-03T11:24:57.754Z,17.3
2023-05-03T11:25:59.793Z,17.4
2023-05-03T11:27:08.039Z,17.4
2023-05-03T11:28:03.750Z,17.4
2023-05-03T11:29:05.736Z,17.4
2023-05-03T11:30:07.752Z,17.4
2023-05-03T11:31:10.111Z,17.4
2023-05-03T11:32:11.765Z,17.4
2023-05-03T11:33:15.816Z,17.4
2023-05-03T11:34:19.731Z,17.3
2023-05-03T11:35:23.813Z,17.3
2023-05-03T11:36:27.740Z,17.3
2023-05-03T11:37:29.758Z,17.5
2023-05-03T11:38:33.772Z,17.4
2023-05-03T11:39:37.771Z,17.4
2023-05-03T11:40:39.745Z,17.5
2023-05-03T11:41:41.757Z,17.5
2023-05-03T11:42:45.808Z,17.6
2023-05-03T11:43:48.485Z,17.5
2023-05-03T11:44:51.764Z,17.5
2023-05-03T11:45:56.862Z,17.7
2023-05-03T11:47:00.894Z,17.8
2023-05-03T11:48:04.859Z,17.9
2023-05-03T11:50:10.739Z,17.9
2023-05-03T11:51:12.770Z,17.8
2023-05-03T11:52:14.826Z,17.8
2023-05-03T11:53:16.868Z,17.7
2023-05-03T11:54:28.875Z,17.7
2023-05-03T11:56:28.913Z,17.8
2023-05-03T11:57:28.994Z,17.9
2023-05-03T11:58:30.859Z,18
2023-05-03T11:59:32.775Z,17.9
2023-05-03T12:00:36.775Z,17.9
2023-05-03T12:01:39.781Z,18
2023-05-03T12:02:41.941Z,18
2023-05-03T12:03:44.224Z,18
2023-05-03T12:04:48.407Z,18
2023-05-03T12:05:50.090Z,18
2023-05-03T12:06:54.638Z,17.9
2023-05-03T12:07:57.423Z,17.8
2023-05-03T12:08:59.360Z,17.7
2023-05-03T12:10:10.273Z,17.6
2023-05-03T12:11:03.388Z,17.4
2023-05-03T12:12:06.214Z,17.3
2023-05-03T12:13:06.150Z,17.2
2023-05-03T12:14:07.995Z,17.2
2023-05-03T12:15:11.468Z,17.1
2023-05-03T12:16:14.119Z,16.9
2023-05-03T12:17:15.531Z,16.7
2023-05-03T12:18:19.013Z,16.6
2023-05-03T12:19:20.396Z,16.6
2023-05-03T12:22:26.961Z,16.3
2023-05-03T12:23:28.078Z,16.4
2023-05-03T12:24:32.181Z,16.4
2023-05-03T12:25:33.513Z,16.4
2023-05-03T12:26:33.996Z,16.4
2023-05-03T12:27:39.657Z,16.4
2023-05-03T12:28:39.873Z,16.4
2023-05-03T12:30:29.640Z,16.4
2023-05-03T12:31:29.395Z,16.3
2023-05-03T12:32:29.015Z,16.4
2023-05-03T12:33:29.007Z,16.5
2023-05-03T12:34:34.630Z,16.5
2023-05-03T12:35:29.207Z,16.6
2023-05-03T12:36:44.345Z,16.6
2023-05-03T12:37:29.056Z,16.6
2023-05-03T12:38:31.136Z,16.5
2023-05-03T12:39:31.655Z,16.5
2023-05-03T12:40:34.248Z,16.4
2023-05-03T12:42:04.742Z,16.3
2023-05-03T12:42:29.080Z,16.3
2023-05-03T12:43:28.949Z,16.3
2023-05-03T12:44:29.256Z,16.2
2023-05-03T12:45:29.052Z,16.2
2023-05-03T12:46:34.544Z,16.1
2023-05-03T12:47:29.438Z,16
2023-05-03T12:48:31.832Z,15.9
2023-05-03T12:49:29.280Z,15.8
2023-05-03T12:50:31.236Z,15.8
2023-05-03T12:51:32.916Z,15.7
2023-05-03T12:53:30.966Z,15.7
2023-05-03T12:54:33.915Z,15.7
2023-05-03T12:55:37.192Z,15.7
2023-05-03T12:56:39.813Z,15.7
2023-05-03T12:57:40.021Z,15.7
2023-05-03T12:58:57.815Z,15.7
2023-05-03T12:59:51.953Z,15.8
2023-05-03T13:01:22.318Z,15.9
2023-05-03T13:02:41.075Z,16
2023-05-03T13:04:15.358Z,16
2023-05-03T13:04:57.664Z,15.9
2023-05-03T13:05:57.066Z,15.9
2023-05-03T13:07:00.342Z,15.9
2023-05-03T13:09:03.396Z,16
2023-05-03T13:11:06.876Z,15.9
2023-05-03T13:12:11.035Z,15.9
2023-05-03T13:13:14.835Z,15.9
2023-05-03T13:14:16.912Z,15.9
2023-05-03T13:15:31.874Z,15.9
2023-05-03T13:16:20.871Z,16
2023-05-03T13:17:23.498Z,16.1
2023-05-03T13:18:24.929Z,16.2
2023-05-03T13:19:26.850Z,16.3
2023-05-03T13:20:28.859Z,16.3
2023-05-03T13:21:30.945Z,16.4
2023-05-03T13:22:32.886Z,16.5
2023-05-03T13:23:34.844Z,16.6
2023-05-03T13:24:36.878Z,16.6
2023-05-03T13:25:39.894Z,16.6
2023-05-03T13:26:41.839Z,16.7
2023-05-03T13:27:44.842Z,16.7
2023-05-03T13:28:46.841Z,16.8
2023-05-03T13:30:01.805Z,16.8
2023-05-03T13:32:59.396Z,16.9
2023-05-03T13:34:01.284Z,16.9
2023-05-03T13:35:03.462Z,16.9
2023-05-03T13:36:07.100Z,16.9
2023-05-03T13:37:11.191Z,16.9
2023-05-03T13:39:19.294Z,16.9
2023-05-03T13:40:23.116Z,17
2023-05-03T13:41:27.125Z,17.1
2023-05-03T13:45:36.635Z,17.3
2023-05-03T13:46:41.193Z,17.3
2023-05-03T13:48:47.761Z,17.3
2023-05-03T13:49:52.671Z,17.3
2023-05-03T13:50:55.737Z,17.3
2023-05-03T13:51:59.664Z,17.3
2023-05-03T13:53:03.635Z,17.4
2023-05-03T13:54:19.852Z,17.5
2023-05-03T13:55:11.652Z,17.4
2023-05-03T13:56:15.854Z,17.4
2023-05-03T13:57:17.640Z,17.4
2023-05-03T13:58:19.636Z,17.3
2023-05-03T13:59:23.705Z,17.3
2023-05-03T14:00:37.817Z,17.2
2023-05-03T14:01:29.017Z,17.1
2023-05-03T14:02:30.711Z,17.1
2023-05-03T14:03:32.982Z,17.1
2023-05-03T14:05:36.850Z,17
2023-05-03T14:06:43.996Z,17
2023-05-03T14:07:42.791Z,16.9
2023-05-03T14:09:28.998Z,17
2023-05-03T14:10:29.143Z,17
2023-05-03T14:11:57.597Z,17.1
2023-05-03T14:15:03.772Z,17.1
2023-05-03T14:16:05.817Z,17.2
2023-05-03T14:17:07.843Z,17.2
2023-05-03T14:18:09.750Z,17.2
2023-05-03T14:20:13.776Z,17.3
2023-05-03T14:22:28.996Z,17.3
2023-05-03T14:23:29.027Z,17.3
2023-05-03T14:24:29.015Z,17.3
2023-05-03T14:25:29.121Z,17.3
2023-05-03T14:27:27.717Z,17.2
2023-05-03T14:29:32.377Z,17.2
2023-05-03T14:30:34.428Z,17.2
2023-05-03T14:31:36.568Z,17.2
2023-05-03T14:32:38.428Z,17.2
2023-05-03T14:34:42.373Z,17.1
2023-05-03T14:35:44.500Z,17
2023-05-03T14:36:46.367Z,16.9
2023-05-03T14:37:48.390Z,16.9
2023-05-03T14:38:50.385Z,16.9
2023-05-03T14:39:52.374Z,16.9
2023-05-03T14:40:55.419Z,16.8
2023-05-03T14:42:29.068Z,16.7
2023-05-03T14:43:29.111Z,16.6